sensor_id;sensor_type;location;lat;lon;timestamp;pressure;altitude;pressure_sealevel;temperature;humidity
83633;BME280;73595;53.084;6.696;2023-12-07T00:02:13;101914.31;;;1.05;96.03
83633;BME280;73595;53.084;6.696;2023-12-07T00:04:41;101952.81;;;1.33;96.47
83633;BME280;73595;53.084;6.696;2023-12-07T00:07:07;101920.97;;;1.11;95.86
83633;BME280;73595;53.084;6.696;2023-12-07T00:09:36;101955.50;;;1.32;96.38
83633;BME280;73595;53.084;6.696;2023-12-07T00:12:02;101953.66;;;1.34;95.97
83633;BME280;73595;53.084;6.696;2023-12-07T00:14:27;101952.91;;;1.32;96.21
83633;BME280;73595;53.084;6.696;2023-12-07T00:16:53;101952.16;;;1.30;96.23
83633;BME280;73595;53.084;6.696;2023-12-07T00:19:19;101897.19;;;1.00;95.86
83633;BME280;73595;53.084;6.696;2023-12-07T00:21:48;101936.03;;;1.22;95.70
83633;BME280;73595;53.084;6.696;2023-12-07T00:24:14;101946.09;;;1.29;96.10
83633;BME280;73595;53.084;6.696;2023-12-07T00:26:39;101946.31;;;1.25;95.92
83633;BME280;73595;53.084;6.696;2023-12-07T00:29:04;101944.38;;;1.28;96.11
83633;BME280;73595;53.084;6.696;2023-12-07T00:31:30;101955.50;;;1.32;96.06
83633;BME280;73595;53.084;6.696;2023-12-07T00:33:55;101876.31;;;0.84;95.75
83633;BME280;73595;53.084;6.696;2023-12-07T00:36:20;101945.31;;;1.27;95.83
83633;BME280;73595;53.084;6.696;2023-12-07T00:38:48;101919.19;;;1.12;95.86
83633;BME280;73595;53.084;6.696;2023-12-07T00:41:13;101920.97;;;1.11;96.06
83633;BME280;73595;53.084;6.696;2023-12-07T00:43:40;101935.38;;;1.18;95.58
83633;BME280;73595;53.084;6.696;2023-12-07T00:46:10;101911.09;;;1.00;95.93
83633;BME280;73595;53.084;6.696;2023-12-07T00:48:36;101938.06;;;1.17;95.91
83633;BME280;73595;53.084;6.696;2023-12-07T00:51:02;101946.47;;;1.22;95.88
83633;BME280;73595;53.084;6.696;2023-12-07T00:53:28;101847.13;;;0.60;95.44
83633;BME280;73595;53.084;6.696;2023-12-07T00:55:53;101955.00;;;1.25;95.58
83633;BME280;73595;53.084;6.696;2023-12-07T00:58:22;101954.16;;;1.25;95.48
83633;BME280;73595;53.084;6.696;2023-12-07T01:00:50;101948.00;;;1.26;95.04
83633;BME280;73595;53.084;6.696;2023-12-07T01:03:16;101919.44;;;1.07;95.32
83633;BME280;73595;53.084;6.696;2023-12-07T01:05:44;101945.72;;;1.20;95.48
83633;BME280;73595;53.084;6.696;2023-12-07T01:08:09;101965.94;;;1.32;95.35
83633;BME280;73595;53.084;6.696;2023-12-07T01:10:34;101965.34;;;1.27;95.18
83633;BME280;73595;53.084;6.696;2023-12-07T01:13:00;101961.38;;;1.20;95.48
83633;BME280;73595;53.084;6.696;2023-12-07T01:15:27;101979.84;;;1.32;95.25
83633;BME280;73595;53.084;6.696;2023-12-07T01:17:52;101974.19;;;1.24;95.29
83633;BME280;73595;53.084;6.696;2023-12-07T01:20:18;101970.56;;;1.27;95.70
83633;BME280;73595;53.084;6.696;2023-12-07T01:22:43;101969.31;;;1.18;95.30
83633;BME280;73595;53.084;6.696;2023-12-07T01:25:10;101983.28;;;1.33;95.17
83633;BME280;73595;53.084;6.696;2023-12-07T01:27:36;101958.69;;;1.21;95.34
83633;BME280;73595;53.084;6.696;2023-12-07T01:30:02;101934.56;;;1.00;95.12
83633;BME280;73595;53.084;6.696;2023-12-07T01:32:29;101952.47;;;1.24;94.53
83633;BME280;73595;53.084;6.696;2023-12-07T01:34:56;101945.81;;;1.18;94.74
83633;BME280;73595;53.084;6.696;2023-12-07T01:37:22;101978.81;;;1.35;94.93
83633;BME280;73595;53.084;6.696;2023-12-07T01:39:49;101982.22;;;1.37;94.68
83633;BME280;73595;53.084;6.696;2023-12-07T01:42:14;101989.88;;;1.40;94.81
83633;BME280;73595;53.084;6.696;2023-12-07T01:44:40;101949.06;;;1.22;94.55
83633;BME280;73595;53.084;6.696;2023-12-07T01:47:10;101983.81;;;1.40;94.84
83633;BME280;73595;53.084;6.696;2023-12-07T01:49:36;101985.59;;;1.39;94.99
83633;BME280;73595;53.084;6.696;2023-12-07T01:52:02;101952.63;;;1.21;94.72
83633;BME280;73595;53.084;6.696;2023-12-07T01:54:34;101960.97;;;1.27;94.81
83633;BME280;73595;53.084;6.696;2023-12-07T01:56:59;102001.84;;;1.44;94.35
83633;BME280;73595;53.084;6.696;2023-12-07T01:59:26;101975.69;;;1.28;94.52
83633;BME280;73595;53.084;6.696;2023-12-07T02:01:53;101996.78;;;1.41;94.88
83633;BME280;73595;53.084;6.696;2023-12-07T02:04:25;101976.56;;;1.29;95.21
83633;BME280;73595;53.084;6.696;2023-12-07T02:06:57;101995.09;;;1.40;94.83
83633;BME280;73595;53.084;6.696;2023-12-07T02:09:24;101966.28;;;1.26;95.08
83633;BME280;73595;53.084;6.696;2023-12-07T02:12:10;101957.09;;;1.19;95.31
83633;BME280;73595;53.084;6.696;2023-12-07T02:14:35;101985.81;;;1.34;95.15
83633;BME280;73595;53.084;6.696;2023-12-07T02:17:13;101975.66;;;1.30;95.31
83633;BME280;73595;53.084;6.696;2023-12-07T02:20:06;101983.28;;;1.33;95.50
83633;BME280;73595;53.084;6.696;2023-12-07T02:22:42;101989.28;;;1.35;95.30
83633;BME280;73595;53.084;6.696;2023-12-07T02:25:10;101972.34;;;1.26;95.26
83633;BME280;73595;53.084;6.696;2023-12-07T02:27:55;101973.19;;;1.27;94.94
83633;BME280;73595;53.084;6.696;2023-12-07T02:30:21;101992.16;;;1.30;95.13
83633;BME280;73595;53.084;6.696;2023-12-07T02:32:46;101996.25;;;1.34;95.17
83633;BME280;73595;53.084;6.696;2023-12-07T02:35:13;101978.41;;;1.27;95.12
83633;BME280;73595;53.084;6.696;2023-12-07T02:37:45;101986.84;;;1.32;95.11
83633;BME280;73595;53.084;6.696;2023-12-07T02:40:12;101985.16;;;1.31;95.51
83633;BME280;73595;53.084;6.696;2023-12-07T02:42:40;101997.38;;;1.30;95.27
83633;BME280;73595;53.084;6.696;2023-12-07T02:45:07;101990.53;;;1.28;95.20
83633;BME280;73595;53.084;6.696;2023-12-07T02:47:34;101973.59;;;1.19;95.05
83633;BME280;73595;53.084;6.696;2023-12-07T02:50:00;101992.22;;;1.29;95.46
83633;BME280;73595;53.084;6.696;2023-12-07T02:52:26;101947.63;;;1.00;95.36
83633;BME280;73595;53.084;6.696;2023-12-07T02:54:51;101988.84;;;1.27;94.83
83633;BME280;73595;53.084;6.696;2023-12-07T02:57:23;101988.69;;;1.30;95.33
83633;BME280;73595;53.084;6.696;2023-12-07T02:59:49;101989.06;;;1.22;95.36
83633;BME280;73595;53.084;6.696;2023-12-07T03:02:14;101912.63;;;0.71;95.38
83633;BME280;73595;53.084;6.696;2023-12-07T03:04:41;101998.75;;;1.20;95.00
83633;BME280;73595;53.084;6.696;2023-12-07T03:07:08;101991.78;;;1.21;94.90
83633;BME280;73595;53.084;6.696;2023-12-07T03:09:33;102004.28;;;1.31;94.61
83633;BME280;73595;53.084;6.696;2023-12-07T03:11:59;102003.53;;;1.29;94.85
83633;BME280;73595;53.084;6.696;2023-12-07T03:14:25;101995.84;;;1.26;94.69
83633;BME280;73595;53.084;6.696;2023-12-07T03:16:54;102003.75;;;1.25;94.92
83633;BME280;73595;53.084;6.696;2023-12-07T03:19:20;101996.84;;;1.24;94.91
83633;BME280;73595;53.084;6.696;2023-12-07T03:21:45;101990.84;;;1.22;94.85
83633;BME280;73595;53.084;6.696;2023-12-07T03:24:11;101985.94;;;1.16;95.13
83633;BME280;73595;53.084;6.696;2023-12-07T03:26:37;101985.94;;;1.16;94.75
83633;BME280;73595;53.084;6.696;2023-12-07T03:29:03;101985.09;;;1.15;95.09
83633;BME280;73595;53.084;6.696;2023-12-07T03:31:32;101947.00;;;0.95;94.67
83633;BME280;73595;53.084;6.696;2023-12-07T03:33:57;101956.28;;;1.01;94.97
83633;BME280;73595;53.084;6.696;2023-12-07T03:36:24;101986.72;;;1.18;95.19
83633;BME280;73595;53.084;6.696;2023-12-07T03:38:49;101970.69;;;1.08;95.37
83633;BME280;73595;53.084;6.696;2023-12-07T03:41:15;101986.13;;;1.13;95.24
83633;BME280;73595;53.084;6.696;2023-12-07T03:43:40;101994.56;;;1.18;95.14
83633;BME280;73595;53.084;6.696;2023-12-07T03:46:08;101992.88;;;1.17;94.47
83633;BME280;73595;53.084;6.696;2023-12-07T03:48:35;102004.69;;;1.24;94.90
83633;BME280;73595;53.084;6.696;2023-12-07T03:51:00;102000.44;;;1.21;95.41
83633;BME280;73595;53.084;6.696;2023-12-07T03:53:27;101999.59;;;1.21;94.86
83633;BME280;73595;53.084;6.696;2023-12-07T03:55:52;102004.06;;;1.19;95.17
83633;BME280;73595;53.084;6.696;2023-12-07T03:58:17;102006.69;;;1.19;95.12
83633;BME280;73595;53.084;6.696;2023-12-07T04:00:44;102001.69;;;1.14;95.14
83633;BME280;73595;53.084;6.696;2023-12-07T04:03:11;102014.59;;;1.17;95.06
83633;BME280;73595;53.084;6.696;2023-12-07T04:05:37;102007.69;;;1.16;95.11
83633;BME280;73595;53.084;6.696;2023-12-07T04:08:04;102005.16;;;1.15;95.51
83633;BME280;73595;53.084;6.696;2023-12-07T04:10:31;102008.91;;;1.09;95.28
83633;BME280;73595;53.084;6.696;2023-12-07T04:12:56;101996.28;;;1.01;94.99
83633;BME280;73595;53.084;6.696;2023-12-07T04:15:22;101997.19;;;1.00;95.27
83633;BME280;73595;53.084;6.696;2023-12-07T04:17:50;102003.25;;;1.01;95.48
83633;BME280;73595;53.084;6.696;2023-12-07T04:20:17;102008.66;;;0.98;95.55
83633;BME280;73595;53.084;6.696;2023-12-07T04:22:43;102008.13;;;0.91;95.07
83633;BME280;73595;53.084;6.696;2023-12-07T04:25:13;102005.81;;;0.85;95.50
83633;BME280;73595;53.084;6.696;2023-12-07T04:27:39;102010.94;;;0.87;95.68
83633;BME280;73595;53.084;6.696;2023-12-07T04:30:05;102001.84;;;0.78;95.52
83633;BME280;73595;53.084;6.696;2023-12-07T04:32:31;101993.53;;;0.70;95.66
83633;BME280;73595;53.084;6.696;2023-12-07T04:34:57;102010.41;;;0.80;95.73
83633;BME280;73595;53.084;6.696;2023-12-07T04:37:23;102022.72;;;0.78;95.82
83633;BME280;73595;53.084;6.696;2023-12-07T04:39:48;102001.44;;;0.68;96.39
83633;BME280;73595;53.084;6.696;2023-12-07T04:42:18;101994.00;;;0.61;96.27
83633;BME280;73595;53.084;6.696;2023-12-07T04:44:43;102014.56;;;0.67;96.38
83633;BME280;73595;53.084;6.696;2023-12-07T04:47:10;102015.50;;;0.66;96.37
83633;BME280;73595;53.084;6.696;2023-12-07T04:49:35;101909.97;;;0.04;96.29
83633;BME280;73595;53.084;6.696;2023-12-07T04:52:01;102010.81;;;0.55;95.99
83633;BME280;73595;53.084;6.696;2023-12-07T04:54:28;102015.00;;;0.58;96.58
83633;BME280;73595;53.084;6.696;2023-12-07T04:56:53;101997.38;;;0.45;96.43
83633;BME280;73595;53.084;6.696;2023-12-07T04:59:20;102015.00;;;0.58;96.75
83633;BME280;73595;53.084;6.696;2023-12-07T05:01:47;102013.28;;;0.58;96.75
83633;BME280;73595;53.084;6.696;2023-12-07T05:04:12;102011.81;;;0.52;96.75
83633;BME280;73595;53.084;6.696;2023-12-07T05:06:38;102011.09;;;0.49;97.00
83633;BME280;73595;53.084;6.696;2023-12-07T05:09:04;102016.09;;;0.53;96.99
83633;BME280;73595;53.084;6.696;2023-12-07T05:11:37;102015.78;;;0.42;97.17
83633;BME280;73595;53.084;6.696;2023-12-07T05:14:02;101980.19;;;0.24;96.81
83633;BME280;73595;53.084;6.696;2023-12-07T05:16:28;102011.56;;;0.40;96.90
83633;BME280;73595;53.084;6.696;2023-12-07T05:18:54;102005.09;;;0.30;97.06
83633;BME280;73595;53.084;6.696;2023-12-07T05:21:19;102016.84;;;0.38;97.11
83633;BME280;73595;53.084;6.696;2023-12-07T05:23:45;102021.63;;;0.47;97.44
83633;BME280;73595;53.084;6.696;2023-12-07T05:26:10;102018.25;;;0.45;97.53
83633;BME280;73595;53.084;6.696;2023-12-07T05:28:37;102012.53;;;0.37;96.91
83633;BME280;73595;53.084;6.696;2023-12-07T05:31:03;102018.25;;;0.45;97.32
83633;BME280;73595;53.084;6.696;2023-12-07T05:33:28;101983.41;;;0.29;97.15
83633;BME280;73595;53.084;6.696;2023-12-07T05:35:57;101990.16;;;0.33;97.52
83633;BME280;73595;53.084;6.696;2023-12-07T05:38:23;102016.53;;;0.44;97.37
83633;BME280;73595;53.084;6.696;2023-12-07T05:40:49;102004.59;;;0.40;97.37
83633;BME280;73595;53.084;6.696;2023-12-07T05:43:14;102003.88;;;0.37;97.37
83633;BME280;73595;53.084;6.696;2023-12-07T05:45:41;102013.09;;;0.44;97.60
83633;BME280;73595;53.084;6.696;2023-12-07T05:48:07;102010.66;;;0.41;97.26
83633;BME280;73595;53.084;6.696;2023-12-07T05:50:33;102015.03;;;0.40;97.64
83633;BME280;73595;53.084;6.696;2023-12-07T05:53:00;102014.22;;;0.38;97.28
83633;BME280;73595;53.084;6.696;2023-12-07T05:55:31;102013.38;;;0.38;97.51
83633;BME280;73595;53.084;6.696;2023-12-07T05:58:00;102001.03;;;0.24;97.50
83633;BME280;73595;53.084;6.696;2023-12-07T06:00:45;101999.88;;;0.30;97.34
83633;BME280;73595;53.084;6.696;2023-12-07T06:03:15;102015.22;;;0.36;97.65
83633;BME280;73595;53.084;6.696;2023-12-07T06:05:48;102006.25;;;0.24;97.82
83633;BME280;73595;53.084;6.696;2023-12-07T06:08:14;101993.66;;;0.15;97.51
83633;BME280;73595;53.084;6.696;2023-12-07T06:10:40;102013.31;;;0.22;97.61
83633;BME280;73595;53.084;6.696;2023-12-07T06:13:12;102014.06;;;0.24;97.72
83633;BME280;73595;53.084;6.696;2023-12-07T06:15:40;102016.66;;;0.24;97.55
83633;BME280;73595;53.084;6.696;2023-12-07T06:18:08;102011.53;;;0.22;97.48
83633;BME280;73595;53.084;6.696;2023-12-07T06:20:35;101977.16;;;-0.03;97.63
83633;BME280;73595;53.084;6.696;2023-12-07T06:23:04;101963.53;;;-0.27;97.53
83633;BME280;73595;53.084;6.696;2023-12-07T06:25:34;102020.78;;;0.11;97.60
83633;BME280;73595;53.084;6.696;2023-12-07T06:28:00;102006.56;;;-0.01;97.37
83633;BME280;73595;53.084;6.696;2023-12-07T06:30:27;101986.47;;;-0.16;97.65
83633;BME280;73595;53.084;6.696;2023-12-07T06:32:57;102006.56;;;-0.01;97.24
83633;BME280;73595;53.084;6.696;2023-12-07T06:35:30;102031.97;;;0.13;97.60
83633;BME280;73595;53.084;6.696;2023-12-07T06:37:56;102013.16;;;0.06;97.36
83633;BME280;73595;53.084;6.696;2023-12-07T06:40:24;101982.84;;;-0.14;97.17
83633;BME280;73595;53.084;6.696;2023-12-07T06:42:50;102003.84;;;0.02;97.62
83633;BME280;73595;53.084;6.696;2023-12-07T06:45:15;101998.28;;;-0.09;97.04
83633;BME280;73595;53.084;6.696;2023-12-07T06:47:44;101941.09;;;-0.48;96.96
83633;BME280;73595;53.084;6.696;2023-12-07T06:50:09;101984.31;;;-0.25;97.56
83633;BME280;73595;53.084;6.696;2023-12-07T06:52:36;102037.81;;;-0.01;97.51
83633;BME280;73595;53.084;6.696;2023-12-07T06:55:10;102019.66;;;-0.03;97.48
83633;BME280;73595;53.084;6.696;2023-12-07T06:57:36;102035.72;;;0.07;97.44
83633;BME280;73595;53.084;6.696;2023-12-07T07:00:02;102012.16;;;-0.09;97.52
83633;BME280;73595;53.084;6.696;2023-12-07T07:02:41;101976.53;;;-0.27;97.49
83633;BME280;73595;53.084;6.696;2023-12-07T07:05:17;102036.69;;;0.05;97.38
83633;BME280;73595;53.084;6.696;2023-12-07T07:07:55;102005.25;;;-0.10;97.40
83633;BME280;73595;53.084;6.696;2023-12-07T07:10:43;102034.09;;;0.05;97.35
83633;BME280;73595;53.084;6.696;2023-12-07T07:13:16;102034.81;;;0.08;97.37
83633;BME280;73595;53.084;6.696;2023-12-07T07:16:08;102021.34;;;-0.02;97.30
83633;BME280;73595;53.084;6.696;2023-12-07T07:18:38;102035.19;;;0.01;97.49
83633;BME280;73595;53.084;6.696;2023-12-07T07:21:27;102043.75;;;0.03;97.67
83633;BME280;73595;53.084;6.696;2023-12-07T07:24:16;101996.97;;;-0.18;97.75
83633;BME280;73595;53.084;6.696;2023-12-07T07:27:02;101985.06;;;-0.23;97.29
83633;BME280;73595;53.084;6.696;2023-12-07T07:29:30;102038.09;;;0.12;97.78
83633;BME280;73595;53.084;6.696;2023-12-07T07:32:06;101982.53;;;-0.25;97.19
83633;BME280;73595;53.084;6.696;2023-12-07T07:34:59;102048.38;;;0.15;97.42
83633;BME280;73595;53.084;6.696;2023-12-07T07:37:29;101986.38;;;-0.15;97.26
83633;BME280;73595;53.084;6.696;2023-12-07T07:40:12;102045.56;;;0.19;97.56
83633;BME280;73595;53.084;6.696;2023-12-07T07:43:31;101944.97;;;-0.38;97.58
83633;BME280;73595;53.084;6.696;2023-12-07T07:46:49;102047.00;;;0.25;97.93
83633;BME280;73595;53.084;6.696;2023-12-07T07:49:14;102022.41;;;0.13;97.65
83633;BME280;73595;53.084;6.696;2023-12-07T07:51:44;102047.00;;;0.25;97.38
83633;BME280;73595;53.084;6.696;2023-12-07T07:54:11;101994.00;;;-0.10;97.08
83633;BME280;73595;53.084;6.696;2023-12-07T07:56:39;102053.63;;;0.32;97.56
83633;BME280;73595;53.084;6.696;2023-12-07T07:59:08;102032.69;;;0.16;97.28
83633;BME280;73595;53.084;6.696;2023-12-07T08:01:34;102035.84;;;0.23;97.40
83633;BME280;73595;53.084;6.696;2023-12-07T08:03:59;102059.91;;;0.28;97.48
83633;BME280;73595;53.084;6.696;2023-12-07T08:06:25;102057.16;;;0.31;97.34
83633;BME280;73595;53.084;6.696;2023-12-07T08:08:52;102050.47;;;0.25;96.96
83633;BME280;73595;53.084;6.696;2023-12-07T08:11:20;102041.25;;;0.18;97.37
83633;BME280;73595;53.084;6.696;2023-12-07T08:13:48;102052.19;;;0.26;97.40
83633;BME280;73595;53.084;6.696;2023-12-07T08:16:15;102028.69;;;0.09;97.25
83633;BME280;73595;53.084;6.696;2023-12-07T08:18:40;102056.31;;;0.31;97.16
83633;BME280;73595;53.084;6.696;2023-12-07T08:21:06;102060.69;;;0.30;97.39
83633;BME280;73595;53.084;6.696;2023-12-07T08:23:34;102049.34;;;0.31;97.59
83633;BME280;73595;53.084;6.696;2023-12-07T08:26:00;102060.72;;;0.47;97.10
83633;BME280;73595;53.084;6.696;2023-12-07T08:28:25;102014.34;;;0.18;96.92
83633;BME280;73595;53.084;6.696;2023-12-07T08:30:50;102022.50;;;0.29;97.18
83633;BME280;73595;53.084;6.696;2023-12-07T08:33:16;102050.28;;;0.47;96.81
83633;BME280;73595;53.084;6.696;2023-12-07T08:35:41;102043.94;;;0.53;96.63
83633;BME280;73595;53.084;6.696;2023-12-07T08:38:06;102030.50;;;0.43;96.74
83633;BME280;73595;53.084;6.696;2023-12-07T08:40:32;102048.78;;;0.61;96.52
83633;BME280;73595;53.084;6.696;2023-12-07T08:42:57;102019.94;;;0.46;96.52
83633;BME280;73595;53.084;6.696;2023-12-07T08:45:22;102017.38;;;0.45;96.38
83633;BME280;73595;53.084;6.696;2023-12-07T08:47:49;102049.84;;;0.57;96.33
83633;BME280;73595;53.084;6.696;2023-12-07T08:50:14;102051.00;;;0.68;96.06
83633;BME280;73595;53.084;6.696;2023-12-07T08:52:39;102040.66;;;0.67;96.20
83633;BME280;73595;53.084;6.696;2023-12-07T08:55:05;102027.38;;;0.54;96.24
83633;BME280;73595;53.084;6.696;2023-12-07T08:57:30;102052.75;;;0.68;96.34
83633;BME280;73595;53.084;6.696;2023-12-07T08:59:56;102034.06;;;0.60;95.95
83633;BME280;73595;53.084;6.696;2023-12-07T09:02:21;102054.63;;;0.66;95.99
83633;BME280;73595;53.084;6.696;2023-12-07T09:04:46;102034.47;;;0.50;95.96
83633;BME280;73595;53.084;6.696;2023-12-07T09:07:14;102051.50;;;0.58;96.16
83633;BME280;73595;53.084;6.696;2023-12-07T09:09:42;102051.75;;;0.53;96.21
83633;BME280;73595;53.084;6.696;2023-12-07T09:12:15;102050.31;;;0.65;96.09
83633;BME280;73595;53.084;6.696;2023-12-07T09:14:41;102033.50;;;0.53;96.01
83633;BME280;73595;53.084;6.696;2023-12-07T09:17:06;102050.06;;;0.52;96.47
83633;BME280;73595;53.084;6.696;2023-12-07T09:19:32;102040.16;;;0.41;96.19
83633;BME280;73595;53.084;6.696;2023-12-07T09:21:57;102050.38;;;0.46;96.61
83633;BME280;73595;53.084;6.696;2023-12-07T09:24:23;102037.97;;;0.32;96.52
83633;BME280;73595;53.084;6.696;2023-12-07T09:26:49;102031.47;;;0.23;96.22
83633;BME280;73595;53.084;6.696;2023-12-07T09:29:14;102052.94;;;0.65;96.01
83633;BME280;73595;53.084;6.696;2023-12-07T09:31:39;102049.31;;;0.67;95.34
83633;BME280;73595;53.084;6.696;2023-12-07T09:34:05;102048.16;;;0.73;95.38
83633;BME280;73595;53.084;6.696;2023-12-07T09:36:33;102053.53;;;0.87;95.15
83633;BME280;73595;53.084;6.696;2023-12-07T09:38:59;102039.25;;;0.77;94.87
83633;BME280;73595;53.084;6.696;2023-12-07T09:41:26;102055.75;;;0.95;95.07
83633;BME280;73595;53.084;6.696;2023-12-07T09:43:52;102062.75;;;1.12;94.63
83633;BME280;73595;53.084;6.696;2023-12-07T09:46:18;102058.28;;;1.14;94.50
83633;BME280;73595;53.084;6.696;2023-12-07T09:48:48;102062.44;;;1.18;94.41
83633;BME280;73595;53.084;6.696;2023-12-07T09:51:16;102063.72;;;1.26;94.26
83633;BME280;73595;53.084;6.696;2023-12-07T09:53:42;102035.78;;;1.11;94.00
83633;BME280;73595;53.084;6.696;2023-12-07T09:56:09;102053.34;;;1.25;94.07
83633;BME280;73595;53.084;6.696;2023-12-07T09:58:34;102047.97;;;1.28;93.86
83633;BME280;73595;53.084;6.696;2023-12-07T10:01:03;102040.13;;;1.28;93.93
83633;BME280;73595;53.084;6.696;2023-12-07T10:03:28;102048.34;;;1.38;93.88
83633;BME280;73595;53.084;6.696;2023-12-07T10:05:59;102051.38;;;1.46;93.54
83633;BME280;73595;53.084;6.696;2023-12-07T10:08:31;102044.28;;;1.48;93.28
83633;BME280;73595;53.084;6.696;2023-12-07T10:11:07;102048.44;;;1.52;93.05
83633;BME280;73595;53.084;6.696;2023-12-07T10:13:34;102036.97;;;1.54;92.90
83633;BME280;73595;53.084;6.696;2023-12-07T10:16:15;102045.78;;;1.69;92.91
83633;BME280;73595;53.084;6.696;2023-12-07T10:18:41;102029.84;;;1.74;92.82
83633;BME280;73595;53.084;6.696;2023-12-07T10:21:07;102037.78;;;1.88;92.34
83633;BME280;73595;53.084;6.696;2023-12-07T10:23:38;102029.19;;;1.86;92.50
83633;BME280;73595;53.084;6.696;2023-12-07T10:26:06;102029.00;;;2.05;92.19
83633;BME280;73595;53.084;6.696;2023-12-07T10:28:34;102016.03;;;2.03;92.14
83633;BME280;73595;53.084;6.696;2023-12-07T10:31:00;102015.09;;;2.04;92.18
83633;BME280;73595;53.084;6.696;2023-12-07T10:33:27;102008.19;;;2.03;91.75
83633;BME280;73595;53.084;6.696;2023-12-07T10:35:56;102030.69;;;2.22;91.44
83633;BME280;73595;53.084;6.696;2023-12-07T10:38:23;102029.31;;;2.30;91.06
83633;BME280;73595;53.084;6.696;2023-12-07T10:41:05;101949.69;;;1.90;90.83
83633;BME280;73595;53.084;6.696;2023-12-07T10:43:37;102012.34;;;2.37;90.86
83633;BME280;73595;53.084;6.696;2023-12-07T10:46:06;102029.81;;;2.53;90.82
83633;BME280;73595;53.084;6.696;2023-12-07T10:48:32;101979.38;;;2.35;90.37
83633;BME280;73595;53.084;6.696;2023-12-07T10:51:02;101997.22;;;2.58;90.33
83633;BME280;73595;53.084;6.696;2023-12-07T10:53:39;102000.03;;;2.69;90.03
83633;BME280;73595;53.084;6.696;2023-12-07T10:56:11;101983.00;;;2.62;89.74
83633;BME280;73595;53.084;6.696;2023-12-07T10:58:43;101994.38;;;2.77;89.41
83633;BME280;73595;53.084;6.696;2023-12-07T11:01:11;101966.38;;;2.63;89.06
83633;BME280;73595;53.084;6.696;2023-12-07T11:03:38;101904.66;;;2.31;88.97
83633;BME280;73595;53.084;6.696;2023-12-07T11:06:06;101972.00;;;2.71;88.87
83633;BME280;73595;53.084;6.696;2023-12-07T11:08:43;102000.66;;;3.03;88.69
83633;BME280;73595;53.084;6.696;2023-12-07T11:11:43;102004.22;;;3.16;88.93
83633;BME280;73595;53.084;6.696;2023-12-07T11:14:12;101958.84;;;2.87;89.04
83633;BME280;73595;53.084;6.696;2023-12-07T11:16:42;101989.41;;;3.01;87.70
83633;BME280;73595;53.084;6.696;2023-12-07T11:22:02;101997.38;;;3.14;88.01
83633;BME280;73595;53.084;6.696;2023-12-07T11:24:29;101983.66;;;3.10;87.63
83633;BME280;73595;53.084;6.696;2023-12-07T11:26:55;101973.81;;;3.14;87.72
83633;BME280;73595;53.084;6.696;2023-12-07T11:29:24;101958.94;;;3.00;87.42
83633;BME280;73595;53.084;6.696;2023-12-07T11:32:02;101969.25;;;3.03;87.55
83633;BME280;73595;53.084;6.696;2023-12-07T11:34:39;101985.41;;;3.24;87.68
83633;BME280;73595;53.084;6.696;2023-12-07T11:37:14;101972.22;;;3.11;87.41
83633;BME280;73595;53.084;6.696;2023-12-07T11:39:41;101959.50;;;2.91;88.33
83633;BME280;73595;53.084;6.696;2023-12-07T11:42:18;101931.38;;;2.36;88.07
83633;BME280;73595;53.084;6.696;2023-12-07T11:44:55;101958.31;;;2.22;89.12
83633;BME280;73595;53.084;6.696;2023-12-07T11:47:22;101966.75;;;2.27;89.51
83633;BME280;73595;53.084;6.696;2023-12-07T11:49:49;101878.16;;;1.77;89.54
83633;BME280;73595;53.084;6.696;2023-12-07T11:52:18;101904.44;;;1.89;89.45
83633;BME280;73595;53.084;6.696;2023-12-07T11:54:46;101967.53;;;2.13;90.23
83633;BME280;73595;53.084;6.696;2023-12-07T11:57:17;101966.72;;;1.97;90.34
83633;BME280;73595;53.084;6.696;2023-12-07T11:59:54;101979.97;;;1.94;90.79
83633;BME280;73595;53.084;6.696;2023-12-07T12:02:21;101973.72;;;1.97;90.59
83633;BME280;73595;53.084;6.696;2023-12-07T12:05:09;101957.38;;;1.77;90.22
83633;BME280;73595;53.084;6.696;2023-12-07T12:07:58;101965.47;;;1.73;90.96
83633;BME280;73595;53.084;6.696;2023-12-07T12:10:23;101862.03;;;1.07;91.04
83633;BME280;73595;53.084;6.696;2023-12-07T12:12:53;101960.50;;;1.68;91.02
83633;BME280;73595;53.084;6.696;2023-12-07T12:15:20;101946.00;;;1.62;91.03
83633;BME280;73595;53.084;6.696;2023-12-07T12:17:47;101897.38;;;1.28;91.24
83633;BME280;73595;53.084;6.696;2023-12-07T12:20:15;101862.75;;;1.09;90.82
83633;BME280;73595;53.084;6.696;2023-12-07T12:22:44;101949.53;;;1.77;91.15
83633;BME280;73595;53.084;6.696;2023-12-07T12:25:09;101893.53;;;1.51;90.69
83633;BME280;73595;53.084;6.696;2023-12-07T12:27:36;101937.31;;;1.78;90.86
83633;BME280;73595;53.084;6.696;2023-12-07T12:30:03;101925.63;;;1.69;91.04
83633;BME280;73595;53.084;6.696;2023-12-07T12:32:51;101925.28;;;1.75;91.22
83633;BME280;73595;53.084;6.696;2023-12-07T12:35:17;101917.78;;;1.69;91.07
83633;BME280;73595;53.084;6.696;2023-12-07T12:37:45;101889.72;;;1.41;91.35
83633;BME280;73595;53.084;6.696;2023-12-07T12:40:15;101855.81;;;1.10;91.66
83633;BME280;73595;53.084;6.696;2023-12-07T12:42:49;101909.72;;;1.42;91.83
83633;BME280;73595;53.084;6.696;2023-12-07T12:45:19;101928.56;;;1.47;92.17
83633;BME280;73595;53.084;6.696;2023-12-07T12:47:47;101911.53;;;1.24;92.03
83633;BME280;73595;53.084;6.696;2023-12-07T12:50:36;101930.66;;;1.41;92.26
83633;BME280;73595;53.084;6.696;2023-12-07T12:53:06;101881.81;;;1.11;92.20
83633;BME280;73595;53.084;6.696;2023-12-07T12:55:39;101900.69;;;1.32;92.46
83633;BME280;73595;53.084;6.696;2023-12-07T12:58:10;101872.81;;;1.17;92.16
83633;BME280;73595;53.084;6.696;2023-12-07T13:00:40;101864.72;;;1.05;92.62
83633;BME280;73595;53.084;6.696;2023-12-07T13:03:08;101843.25;;;1.00;92.95
83633;BME280;73595;53.084;6.696;2023-12-07T13:05:39;101879.03;;;1.14;92.92
83633;BME280;73595;53.084;6.696;2023-12-07T13:08:05;101849.06;;;1.05;92.72
83633;BME280;73595;53.084;6.696;2023-12-07T13:10:30;101865.97;;;1.14;93.26
83633;BME280;73595;53.084;6.696;2023-12-07T13:13:00;101861.50;;;1.00;93.38